Time;durP1;ratioP1;P1;durP2;ratioP2;P2;SDS_P1;SDS_P2;PMS_P1;PMS_P2;Temp;Humidity;BMP_temperature;BMP_pressure;BME280_temperature;BME280_humidity;BME280_pressure;Samples;Min_cycle;Max_cycle;Signal;HPM_P1;HPM_P2
2022/10/27 00:02:20;;;;;;;26.10;4.68;;;10.40;99.90;;;;;;5020827;28;20192;-58
2022/10/27 00:04:46;;;;;;;5.18;4.68;;;10.30;99.90;;;;;;5018051;28;20049;-59
2022/10/27 00:07:11;;;;;;;5.18;4.78;;;10.30;99.90;;;;;;5020104;28;20037;-58
2022/10/27 00:09:37;;;;;;;5.65;5.15;;;10.20;99.90;;;;;;5019832;28;20390;-58
2022/10/27 00:12:03;;;;;;;5.93;5.32;;;10.20;99.90;;;;;;5020085;28;20085;-59
2022/10/27 00:14:28;;;;;;;5.90;5.50;;;10.10;99.90;;;;;;5019769;28;20077;-58
2022/10/27 00:16:56;;;;;;;7.53;5.40;;;10.00;99.90;;;;;;5022246;28;20410;-58
2022/10/27 00:19:23;;;;;;;113.72;8.73;;;10.00;99.90;;;;;;5017006;28;20041;-59
2022/10/27 00:21:52;;;;;;;88.85;7.97;;;10.00;99.90;;;;;;5017089;28;20034;-58
2022/10/27 00:24:19;;;;;;;17.73;5.55;;;9.90;99.90;;;;;;5022543;28;20478;-60
2022/10/27 00:26:45;;;;;;;103.00;7.70;;;9.90;99.90;;;;;;5024692;28;20036;-59
2022/10/27 00:29:10;;;;;;;88.32;7.10;;;9.90;99.90;;;;;;5021302;28;20013;-60
2022/10/27 00:31:36;;;;;;;54.08;6.15;;;9.80;99.90;;;;;;5021548;28;20022;-59
2022/10/27 00:34:02;;;;;;;49.50;6.07;;;9.70;99.90;;;;;;5021861;28;20021;-61
2022/10/27 00:36:27;;;;;;;51.45;7.43;;;9.70;99.90;;;;;;5017876;28;20037;-59
2022/10/27 00:38:55;;;;;;;33.03;6.30;;;9.70;99.90;;;;;;5020498;28;20041;-57
2022/10/27 00:41:34;;;;;;;52.85;6.57;;;9.70;99.90;;;;;;5023744;28;20088;-58
2022/10/27 00:44:02;;;;;;;36.63;6.78;;;9.70;99.90;;;;;;5018035;28;20040;-59
2022/10/27 00:46:39;;;;;;;21.83;5.93;;;9.70;99.90;;;;;;5020380;28;20486;-58
2022/10/27 00:49:11;;;;;;;20.67;6.10;;;9.70;99.90;;;;;;5019804;28;20033;-58
2022/10/27 00:51:44;;;;;;;6.32;5.57;;;9.60;99.90;;;;;;5022693;28;20025;-59
2022/10/27 00:54:11;;;;;;;15.60;6.72;;;9.70;99.90;;;;;;5020196;28;20033;-59
2022/10/27 00:56:38;;;;;;;68.05;8.75;;;9.70;99.90;;;;;;5020092;28;20100;-59
2022/10/27 00:59:04;;;;;;;40.67;7.78;;;9.80;99.90;;;;;;5018729;28;20067;-59
2022/10/27 01:01:30;;;;;;;16.40;6.32;;;9.80;99.90;;;;;;5022825;28;20041;-59
2022/10/27 01:03:56;;;;;;;6.88;6.00;;;9.80;99.90;;;;;;5018848;28;20030;-59
2022/10/27 01:06:23;;;;;;;6.35;5.75;;;9.80;99.90;;;;;;5022714;28;20539;-58
2022/10/27 01:08:50;;;;;;;10.05;5.40;;;9.80;99.90;;;;;;5019227;28;20494;-59
2022/10/27 01:11:15;;;;;;;7.38;5.90;;;9.80;99.90;;;;;;5018277;28;20048;-59
2022/10/27 01:13:41;;;;;;;32.30;8.63;;;9.80;99.90;;;;;;5015831;28;20113;-60
2022/10/27 01:16:46;;;;;;;15.18;8.35;;;9.90;99.90;;;;;;5020832;28;20146;-59
2022/10/27 01:19:17;;;;;;;13.95;8.50;;;9.90;99.90;;;;;;5009109;28;20112;-58
2022/10/27 01:22:24;;;;;;;67.47;7.65;;;10.00;99.90;;;;;;5018404;28;20038;-58
2022/10/27 01:25:07;;;;;;;60.88;6.53;;;10.00;99.90;;;;;;4986495;28;20041;-60
2022/10/27 01:27:42;;;;;;;65.05;6.38;;;10.00;99.90;;;;;;4987999;28;20019;-59
2022/10/27 01:30:29;;;;;;;61.20;6.80;;;9.90;99.90;;;;;;5002381;28;20057;-59
2022/10/27 01:32:59;;;;;;;77.28;6.05;;;9.90;99.90;;;;;;5017931;28;20033;-58
2022/10/27 01:35:46;;;;;;;52.70;6.18;;;9.80;99.90;;;;;;5021148;28;20481;-58
2022/10/27 01:38:50;;;;;;;38.92;5.03;;;9.80;99.90;;;;;;5034310;28;20045;-58
2022/10/27 01:41:27;;;;;;;42.97;6.88;;;9.70;99.90;;;;;;4936851;29;20445;-58
2022/10/27 01:43:56;;;;;;;60.85;7.47;;;9.70;99.90;;;;;;5014103;28;20040;-57
2022/10/27 01:46:22;;;;;;;97.07;9.35;;;9.80;99.90;;;;;;5014788;28;20029;-59
2022/10/27 01:48:48;;;;;;;84.75;10.30;;;9.80;99.90;;;;;;5018631;28;20044;-58
2022/10/27 01:51:14;;;;;;;169.50;12.27;;;9.80;99.90;;;;;;5020645;28;20386;-59
2022/10/27 01:53:48;;;;;;;46.42;9.50;;;9.90;99.90;;;;;;5016135;28;20026;-59
2022/10/27 01:56:32;;;;;;;200.27;13.90;;;9.90;99.90;;;;;;5019474;28;20015;-59
2022/10/27 01:59:16;;;;;;;105.63;11.30;;;10.00;99.90;;;;;;5016607;28;20077;-59
2022/10/27 02:02:07;;;;;;;85.57;12.13;;;10.00;99.90;;;;;;5015908;28;20043;-59
2022/10/27 02:04:56;;;;;;;94.97;9.00;;;10.00;99.90;;;;;;5020288;28;20037;-60
2022/10/27 02:07:48;;;;;;;83.63;8.43;;;10.00;99.90;;;;;;5021953;28;20125;-58
2022/10/27 02:10:21;;;;;;;91.45;8.35;;;9.90;99.90;;;;;;5019284;28;20040;-59
2022/10/27 02:12:48;;;;;;;56.25;8.55;;;9.90;99.90;;;;;;5020271;28;20047;-59
2022/10/27 02:15:32;;;;;;;53.35;7.45;;;9.90;99.90;;;;;;5018498;28;20036;-59
2022/10/27 02:18:21;;;;;;;89.75;9.18;;;9.80;99.90;;;;;;5022061;28;20052;-59
2022/10/27 02:20:50;;;;;;;50.75;6.13;;;9.70;99.90;;;;;;5024053;28;20244;-59
2022/10/27 02:23:19;;;;;;;82.10;7.53;;;9.60;99.90;;;;;;5024596;28;20138;-58
2022/10/27 02:25:56;;;;;;;35.03;6.13;;;9.60;99.90;;;;;;5025662;28;20045;-58
2022/10/27 02:28:29;;;;;;;42.35;7.10;;;9.50;99.90;;;;;;5021410;28;20521;-59
2022/10/27 02:30:57;;;;;;;16.25;5.88;;;9.50;99.90;;;;;;5017224;28;20176;-58
2022/10/27 02:33:23;;;;;;;25.02;5.43;;;9.50;99.90;;;;;;5020435;28;20414;-59
2022/10/27 02:35:50;;;;;;;14.40;5.93;;;9.50;99.90;;;;;;5021362;28;20089;-59
2022/10/27 02:38:15;;;;;;;31.60;5.53;;;9.50;99.90;;;;;;5016401;28;20415;-58
2022/10/27 02:40:41;;;;;;;14.35;5.93;;;9.50;99.90;;;;;;5021963;28;20057;-58
2022/10/27 02:43:07;;;;;;;33.17;5.80;;;9.50;99.90;;;;;;5019161;28;20152;-59
2022/10/27 02:45:33;;;;;;;22.55;5.50;;;9.50;99.90;;;;;;5018154;28;20022;-58
2022/10/27 02:47:58;;;;;;;16.92;5.75;;;9.50;99.90;;;;;;5019409;28;20087;-59
2022/10/27 02:50:24;;;;;;;6.40;5.05;;;9.60;99.90;;;;;;5022831;28;20425;-58
2022/10/27 02:52:49;;;;;;;22.77;5.93;;;9.60;99.90;;;;;;5015774;28;20056;-60
2022/10/27 02:55:15;;;;;;;33.22;5.88;;;9.70;99.90;;;;;;5017887;28;20490;-59
2022/10/27 02:57:41;;;;;;;41.10;6.22;;;9.70;99.90;;;;;;5016910;28;20371;-59
2022/10/27 03:00:07;;;;;;;67.70;7.57;;;9.80;99.90;;;;;;5018892;28;20079;-58
2022/10/27 03:02:33;;;;;;;38.50;7.28;;;9.90;99.90;;;;;;5019309;28;20101;-59
2022/10/27 03:04:58;;;;;;;14.27;6.75;;;9.90;99.90;;;;;;5017944;28;20470;-59
2022/10/27 03:07:24;;;;;;;54.25;8.43;;;9.90;99.90;;;;;;5019973;28;20045;-58
2022/10/27 03:09:49;;;;;;;166.63;10.65;;;10.00;99.90;;;;;;5018502;28;20032;-60
2022/10/27 03:12:15;;;;;;;57.58;8.35;;;10.10;99.90;;;;;;5018772;28;20025;-60
2022/10/27 03:14:41;;;;;;;41.42;7.68;;;10.10;99.90;;;;;;5019261;28;20034;-59
2022/10/27 03:17:06;;;;;;;122.80;8.95;;;10.20;99.90;;;;;;5021167;28;20026;-59
2022/10/27 03:19:32;;;;;;;67.60;8.32;;;10.20;99.90;;;;;;5015477;28;20061;-59
2022/10/27 03:21:57;;;;;;;58.00;7.47;;;10.20;99.90;;;;;;5020336;28;20030;-58
2022/10/27 03:24:23;;;;;;;69.65;8.05;;;10.20;99.90;;;;;;5014217;28;20056;-58
2022/10/27 03:26:48;;;;;;;20.35;6.55;;;10.20;99.90;;;;;;5016001;28;20022;-58
2022/10/27 03:29:14;;;;;;;76.13;8.40;;;10.20;99.90;;;;;;5016474;28;20010;-57
2022/10/27 03:31:40;;;;;;;50.58;7.65;;;10.20;99.90;;;;;;5011798;28;20109;-58
2022/10/27 03:34:05;;;;;;;119.95;9.93;;;10.20;99.90;;;;;;5018185;28;20022;-60
2022/10/27 03:36:31;;;;;;;49.17;7.60;;;10.30;99.90;;;;;;5017415;28;20036;-59
2022/10/27 03:38:56;;;;;;;82.68;9.20;;;10.30;99.90;;;;;;5015383;28;20457;-59
2022/10/27 03:41:22;;;;;;;40.90;8.45;;;10.30;99.90;;;;;;5017999;28;20030;-59
2022/10/27 03:43:48;;;;;;;23.30;7.47;;;10.40;99.90;;;;;;5018427;28;20030;-58
2022/10/27 03:46:13;;;;;;;49.28;8.65;;;10.40;99.90;;;;;;5016506;28;20056;-59
2022/10/27 03:48:39;;;;;;;40.72;8.80;;;10.40;99.90;;;;;;5016546;28;20030;-58
2022/10/27 03:51:05;;;;;;;43.83;10.20;;;10.40;99.90;;;;;;5017288;28;20557;-59
2022/10/27 03:53:30;;;;;;;77.35;11.48;;;10.40;99.90;;;;;;5020054;28;20073;-59
2022/10/27 03:55:56;;;;;;;89.53;11.30;;;10.40;99.90;;;;;;5021979;28;20044;-58
2022/10/27 03:58:21;;;;;;;22.45;8.48;;;10.40;99.90;;;;;;5021331;28;20733;-57
2022/10/27 04:00:47;;;;;;;79.43;8.60;;;10.40;99.90;;;;;;5024642;28;20038;-59
2022/10/27 04:03:13;;;;;;;60.17;7.28;;;10.40;99.90;;;;;;5016113;28;20445;-58
2022/10/27 04:05:39;;;;;;;38.63;6.80;;;10.40;99.90;;;;;;5019969;28;20440;-58
2022/10/27 04:08:04;;;;;;;46.08;6.57;;;10.30;99.90;;;;;;5021465;28;20025;-58
2022/10/27 04:10:30;;;;;;;61.20;6.57;;;10.30;99.90;;;;;;5021361;28;20025;-58
2022/10/27 04:12:56;;;;;;;57.55;7.00;;;10.30;99.90;;;;;;5020800;28;20438;-58
2022/10/27 04:15:24;;;;;;;57.92;6.50;;;10.20;99.90;;;;;;5021409;28;20114;-59
2022/10/27 04:17:55;;;;;;;39.58;5.85;;;10.20;99.90;;;;;;5022982;28;20517;-61
2022/10/27 04:20:21;;;;;;;79.47;5.75;;;10.20;99.90;;;;;;5020113;28;20083;-59
2022/10/27 04:22:46;;;;;;;28.55;5.43;;;10.20;99.90;;;;;;5019781;28;20521;-59
2022/10/27 04:25:12;;;;;;;66.20;7.85;;;10.20;99.90;;;;;;5015321;28;20673;-59
2022/10/27 04:27:38;;;;;;;114.30;8.43;;;10.10;99.90;;;;;;5021213;28;20080;-59
2022/10/27 04:30:04;;;;;;;77.57;7.97;;;10.10;99.90;;;;;;5020309;28;20026;-59
2022/10/27 04:32:29;;;;;;;96.95;9.10;;;10.10;99.90;;;;;;5020461;28;20018;-60
2022/10/27 04:34:55;;;;;;;61.60;8.18;;;10.10;99.90;;;;;;5024994;28;20036;-60
2022/10/27 04:37:21;;;;;;;108.72;8.73;;;10.10;99.90;;;;;;5021224;28;20068;-60
2022/10/27 04:39:46;;;;;;;71.22;8.75;;;10.20;99.90;;;;;;5028819;28;20022;-60
2022/10/27 04:42:12;;;;;;;31.73;7.65;;;10.20;99.90;;;;;;5021046;28;20021;-60
2022/10/27 04:44:37;;;;;;;54.08;9.95;;;10.20;99.90;;;;;;5019940;28;20469;-60
2022/10/27 04:47:03;;;;;;;79.95;9.85;;;10.30;99.90;;;;;;5021209;28;20021;-60
2022/10/27 04:49:29;;;;;;;51.65;9.43;;;10.30;99.90;;;;;;5021190;28;20401;-60
2022/10/27 04:51:55;;;;;;;74.38;10.13;;;10.40;99.90;;;;;;5021384;28;20913;-60
2022/10/27 04:54:20;;;;;;;70.82;9.57;;;10.40;99.90;;;;;;5019077;28;20029;-60
2022/10/27 04:56:46;;;;;;;44.97;8.85;;;10.40;99.90;;;;;;5018848;28;20526;-60
2022/10/27 04:59:11;;;;;;;102.97;9.32;;;10.40;99.90;;;;;;5019294;28;20014;-60
2022/10/27 05:01:38;;;;;;;39.08;10.00;;;10.50;99.90;;;;;;5017177;28;20529;-58
2022/10/27 05:04:04;;;;;;;44.33;8.18;;;10.50;99.90;;;;;;5022569;28;20034;-58
2022/10/27 05:06:30;;;;;;;57.58;8.68;;;10.50;99.90;;;;;;5016311;28;20560;-59
2022/10/27 05:08:55;;;;;;;60.83;9.07;;;10.60;99.90;;;;;;5017421;28;20036;-59
2022/10/27 05:11:21;;;;;;;195.55;12.98;;;10.50;99.90;;;;;;5016426;28;20027;-59
2022/10/27 05:13:50;;;;;;;171.30;12.43;;;10.60;99.90;;;;;;5021312;28;20477;-59
2022/10/27 05:16:17;;;;;;;166.70;13.18;;;10.60;99.90;;;;;;5018435;28;20037;-58
2022/10/27 05:18:43;;;;;;;111.25;10.38;;;10.50;99.90;;;;;;5022296;28;20422;-60
2022/10/27 05:21:08;;;;;;;91.13;11.85;;;10.50;99.90;;;;;;5021975;28;20029;-59
2022/10/27 05:23:34;;;;;;;155.95;12.82;;;10.50;99.90;;;;;;5019276;28;20025;-59
2022/10/27 05:26:00;;;;;;;68.22;11.05;;;10.50;99.90;;;;;;5019212;28;20041;-59
2022/10/27 05:28:25;;;;;;;127.88;11.88;;;10.50;99.90;;;;;;5019068;28;20026;-59
2022/10/27 05:30:57;;;;;;;69.28;11.07;;;10.60;99.90;;;;;;5016241;28;20038;-58
2022/10/27 05:33:23;;;;;;;28.75;9.65;;;10.60;99.90;;;;;;5023212;28;20033;-59
2022/10/27 05:35:49;;;;;;;99.80;11.48;;;10.60;99.90;;;;;;5020996;28;20037;-60
2022/10/27 05:38:15;;;;;;;142.50;12.23;;;10.70;99.90;;;;;;5023701;28;20026;-59
2022/10/27 05:40:41;;;;;;;136.48;12.02;;;10.70;99.90;;;;;;5021620;28;20036;-61
2022/10/27 05:43:08;;;;;;;136.07;12.27;;;10.70;99.90;;;;;;5009561;28;20068;-58
2022/10/27 05:45:33;;;;;;;36.53;11.38;;;10.70;99.90;;;;;;5018428;28;20038;-60
2022/10/27 05:48:05;;;;;;;35.42;9.55;;;10.70;99.90;;;;;;5020750;28;20087;-59
2022/10/27 05:50:31;;;;;;;35.53;10.20;;;10.80;99.90;;;;;;5019079;28;20059;-59
2022/10/27 05:52:57;;;;;;;133.50;13.20;;;10.80;99.90;;;;;;5017914;28;20640;-58
2022/10/27 05:55:23;;;;;;;46.85;11.85;;;10.80;99.90;;;;;;5015388;28;20030;-58
2022/10/27 05:57:56;;;;;;;87.43;11.73;;;10.90;99.90;;;;;;5019238;28;20025;-59
2022/10/27 06:00:25;;;;;;;95.75;12.23;;;10.90;99.90;;;;;;5023307;28;20041;-59
2022/10/27 06:02:54;;;;;;;130.02;12.50;;;10.90;99.90;;;;;;5020596;28;20425;-59
2022/10/27 06:05:20;;;;;;;49.92;12.93;;;10.90;99.90;;;;;;5019411;28;20113;-59
2022/10/27 06:07:45;;;;;;;52.83;13.38;;;10.90;99.90;;;;;;5015624;28;20109;-60
2022/10/27 06:10:11;;;;;;;82.47;15.98;;;10.90;99.90;;;;;;5015168;28;20029;-59
2022/10/27 06:12:37;;;;;;;144.77;17.38;;;11.00;99.90;;;;;;5016761;28;20045;-60
2022/10/27 06:15:03;;;;;;;96.60;15.50;;;11.00;99.90;;;;;;5025855;28;20029;-59
2022/10/27 06:17:28;;;;;;;109.72;17.42;;;11.00;99.90;;;;;;5024030;28;20056;-59
2022/10/27 06:19:54;;;;;;;70.65;17.40;;;11.00;99.90;;;;;;5022872;28;20041;-59
2022/10/27 06:22:19;;;;;;;60.33;15.77;;;11.00;99.90;;;;;;5017828;28;20033;-58
2022/10/27 06:24:45;;;;;;;75.85;16.00;;;11.00;99.90;;;;;;5019757;28;20048;-58
2022/10/27 06:27:10;;;;;;;57.03;17.35;;;11.00;99.90;;;;;;5004269;28;20026;-59
2022/10/27 06:29:36;;;;;;;53.30;14.75;;;11.00;99.90;;;;;;5017826;28;20033;-60
2022/10/27 06:32:02;;;;;;;85.38;15.63;;;11.00;99.90;;;;;;5016149;28;20037;-58
2022/10/27 06:34:27;;;;;;;54.53;15.05;;;11.00;99.90;;;;;;5019397;28;20050;-60
2022/10/27 06:36:53;;;;;;;33.97;12.77;;;11.00;99.90;;;;;;5019210;28;20108;-59
2022/10/27 06:39:18;;;;;;;73.30;14.68;;;10.90;99.90;;;;;;5016483;28;20029;-60
2022/10/27 06:41:44;;;;;;;68.82;15.43;;;10.90;99.90;;;;;;5016213;28;20057;-60
2022/10/27 06:44:09;;;;;;;56.72;14.23;;;10.90;99.90;;;;;;5016816;28;20029;-58
2022/10/27 06:46:38;;;;;;;54.53;13.35;;;10.90;99.90;;;;;;5020556;28;20022;-61
2022/10/27 06:49:03;;;;;;;37.70;12.63;;;10.90;99.90;;;;;;5018788;28;20091;-59
2022/10/27 06:51:29;;;;;;;33.22;12.43;;;10.90;99.90;;;;;;5013636;28;20026;-60
2022/10/27 06:53:55;;;;;;;39.47;12.90;;;10.90;99.90;;;;;;5005310;28;20378;-59
2022/10/27 06:56:21;;;;;;;59.55;13.95;;;11.00;99.90;;;;;;5020160;28;20080;-60
2022/10/27 06:58:47;;;;;;;48.83;12.38;;;11.00;99.90;;;;;;5020607;28;20536;-60
2022/10/27 07:01:13;;;;;;;66.03;12.20;;;11.10;99.90;;;;;;5020750;28;20030;-59
2022/10/27 07:03:39;;;;;;;33.95;12.32;;;11.10;99.90;;;;;;5019546;28;20033;-59
2022/10/27 07:06:05;;;;;;;64.30;11.93;;;11.10;99.90;;;;;;5016827;28;20033;-58
2022/10/27 07:08:31;;;;;;;37.45;11.98;;;11.10;99.90;;;;;;5013760;28;20067;-61
2022/10/27 07:10:57;;;;;;;42.05;12.93;;;11.20;99.90;;;;;;5015213;28;20072;-61
2022/10/27 07:13:22;;;;;;;46.17;13.02;;;11.20;99.90;;;;;;5021247;28;20501;-59
2022/10/27 07:15:48;;;;;;;34.40;11.68;;;11.30;99.90;;;;;;5019864;28;20514;-61
2022/10/27 07:18:14;;;;;;;87.88;12.75;;;11.30;99.90;;;;;;5024154;28;20033;-58
2022/10/27 07:20:40;;;;;;;30.92;12.98;;;11.40;99.90;;;;;;5021129;28;20091;-60
2022/10/27 07:23:07;;;;;;;20.35;12.43;;;11.50;99.90;;;;;;5019790;28;20033;-59
2022/10/27 07:25:33;;;;;;;26.77;12.68;;;11.50;99.90;;;;;;5017972;28;20036;-59
2022/10/27 07:28:01;;;;;;;32.10;11.25;;;11.60;99.90;;;;;;5020491;28;20036;-59
2022/10/27 07:30:30;;;;;;;46.10;12.48;;;11.70;99.90;;;;;;5022053;28;20036;-60
2022/10/27 07:32:56;;;;;;;22.98;12.30;;;11.70;99.90;;;;;;5022219;28;20814;-61
2022/10/27 07:35:23;;;;;;;22.83;10.63;;;11.80;99.90;;;;;;5022836;28;20053;-60
2022/10/27 07:37:49;;;;;;;48.60;14.05;;;11.80;99.90;;;;;;5021611;28;20037;-60
2022/10/27 07:40:16;;;;;;;49.40;13.32;;;11.80;99.90;;;;;;5023970;28;20022;-60
2022/10/27 07:42:55;;;;;;;56.85;12.93;;;11.90;99.90;;;;;;5019492;28;20595;-60
2022/10/27 07:45:22;;;;;;;35.90;12.40;;;12.00;99.90;;;;;;5023050;28;20083;-60
2022/10/27 07:47:50;;;;;;;89.38;13.15;;;12.00;99.90;;;;;;5019884;28;20095;-60
2022/10/27 07:50:17;;;;;;;49.33;11.88;;;12.00;99.90;;;;;;5020248;28;20563;-59
2022/10/27 07:52:44;;;;;;;51.78;12.75;;;12.00;99.90;;;;;;5019250;28;20025;-60
2022/10/27 07:55:11;;;;;;;71.10;13.63;;;11.90;99.90;;;;;;5018035;28;20030;-59
2022/10/27 07:57:36;;;;;;;86.03;13.77;;;12.00;99.90;;;;;;5019112;28;20482;-60
2022/10/27 08:00:08;;;;;;;74.68;13.63;;;12.00;99.90;;;;;;5021161;28;20153;-59
2022/10/27 08:02:33;;;;;;;;;;;12.00;99.90;;;;;;5020709;28;20506;-59
2022/10/27 08:04:59;;;;;;;80.93;14.40;;;12.10;99.90;;;;;;5024107;28;20028;-61
2022/10/27 08:07:24;;;;;;;57.55;14.90;;;12.20;99.90;;;;;;5020195;28;20029;-59
2022/10/27 08:09:50;;;;;;;85.30;15.25;;;12.20;99.90;;;;;;5024262;28;20033;-60
2022/10/27 08:12:16;;;;;;;88.25;14.80;;;12.30;99.90;;;;;;5018282;28;20133;-61
2022/10/27 08:14:41;;;;;;;72.20;13.27;;;12.40;99.90;;;;;;5017737;28;20026;-59
2022/10/27 08:17:07;;;;;;;73.70;14.30;;;12.40;99.90;;;;;;5018876;28;20052;-60
2022/10/27 08:19:33;;;;;;;96.03;15.95;;;12.30;99.90;;;;;;5018489;28;20029;-60
2022/10/27 08:21:58;;;;;;;100.10;15.93;;;12.30;99.90;;;;;;5015577;28;20023;-59
2022/10/27 08:24:24;;;;;;;73.00;15.32;;;12.20;99.90;;;;;;5018121;28;20025;-60
2022/10/27 08:26:49;;;;;;;92.90;17.13;;;12.10;99.90;;;;;;5019595;28;20787;-59
2022/10/27 08:29:15;;;;;;;53.00;15.60;;;12.20;99.90;;;;;;5021125;28;20028;-59
2022/10/27 08:31:41;;;;;;;86.75;17.75;;;12.20;99.90;;;;;;5019766;28;20037;-59
2022/10/27 08:34:07;;;;;;;83.30;17.23;;;12.40;99.90;;;;;;5021786;28;20134;-60
2022/10/27 08:36:37;;;;;;;78.30;16.13;;;12.40;99.90;;;;;;5020727;28;20021;-60
2022/10/27 08:39:04;;;;;;;44.30;14.57;;;12.40;99.90;;;;;;5020613;28;20025;-60
2022/10/27 08:41:59;;;;;;;42.63;16.67;;;12.50;99.90;;;;;;5017953;28;20407;-60
2022/10/27 08:44:51;;;;;;;34.78;14.75;;;12.60;99.90;;;;;;5016077;28;20063;-59
2022/10/27 08:47:22;;;;;;;25.52;15.60;;;12.60;99.90;;;;;;5011853;28;20501;-59
2022/10/27 08:49:57;;;;;;;;;;;12.70;99.90;;;;;;5016865;28;20053;-59
2022/10/27 08:52:43;;;;;;;23.52;14.70;;;12.80;99.90;;;;;;5020459;28;20270;-59
2022/10/27 08:55:20;;;;;;;24.70;16.25;;;12.90;99.90;;;;;;5017685;28;20041;-60
2022/10/27 08:58:12;;;;;;;17.17;15.35;;;12.90;99.90;;;;;;5023354;28;20113;-58
2022/10/27 09:00:48;;;;;;;;;;;12.90;99.90;;;;;;5020721;28;20018;-59
2022/10/27 09:03:36;;;;;;;18.83;16.45;;;13.00;99.90;;;;;;5017045;28;19909;-60
2022/10/27 09:06:20;;;;;;;18.35;16.55;;;13.00;99.90;;;;;;5016767;28;20049;-59
2022/10/27 09:08:46;;;;;;;17.25;15.60;;;13.10;99.90;;;;;;5020627;28;20032;-59
2022/10/27 09:11:18;;;;;;;20.10;15.48;;;13.00;99.90;;;;;;5019359;28;20022;-60
2022/10/27 09:13:58;;;;;;;19.25;17.20;;;13.10;99.90;;;;;;5021275;28;20025;-60
2022/10/27 09:16:39;;;;;;;17.48;15.68;;;13.10;99.90;;;;;;5018860;28;20030;-59
2022/10/27 09:19:11;;;;;;;17.17;15.43;;;13.10;99.90;;;;;;5019610;28;20116;-58
2022/10/27 09:21:39;;;;;;;22.70;16.55;;;13.10;99.90;;;;;;5018100;28;20540;-59
2022/10/27 09:24:12;;;;;;;18.75;17.15;;;13.10;99.90;;;;;;5003762;28;20433;-60
2022/10/27 09:26:39;;;;;;;19.02;17.08;;;13.30;99.90;;;;;;5017701;28;20064;-59
2022/10/27 09:29:23;;;;;;;19.08;17.02;;;13.40;99.90;;;;;;5020845;28;20036;-60
2022/10/27 09:31:55;;;;;;;18.10;16.38;;;13.40;99.90;;;;;;5034558;28;20042;-59
2022/10/27 09:34:26;;;;;;;;;;;13.50;99.90;;;;;;5018390;28;20022;-60
2022/10/27 09:36:52;;;;;;;18.33;16.45;;;13.50;99.90;;;;;;5017955;28;19913;-60
2022/10/27 09:39:21;;;;;;;19.92;17.85;;;13.60;99.90;;;;;;5021886;28;20041;-59
2022/10/27 09:41:48;;;;;;;22.70;19.45;;;13.50;99.90;;;;;;5019662;28;20168;-60
2022/10/27 09:44:19;;;;;;;25.02;21.38;;;13.40;99.90;;;;;;5018746;28;20442;-59
2022/10/27 09:46:51;;;;;;;23.50;20.92;;;13.30;99.90;;;;;;5018221;28;20033;-59
2022/10/27 09:49:18;;;;;;;22.85;20.58;;;13.30;99.90;;;;;;5019916;28;20041;-60
2022/10/27 09:52:22;;;;;;;22.02;19.73;;;13.30;99.90;;;;;;5019890;28;20030;-59
2022/10/27 09:54:53;;;;;;;22.50;20.48;;;13.40;99.90;;;;;;5006800;28;20030;-59
2022/10/27 09:57:22;;;;;;;20.20;18.08;;;13.60;99.90;;;;;;5020410;28;20033;-59
2022/10/27 10:00:20;;;;;;;22.85;19.73;;;13.80;99.90;;;;;;5013021;28;20124;-60
2022/10/27 10:02:54;;;;;;;19.83;18.02;;;14.20;99.90;;;;;;4999784;28;20113;-59
2022/10/27 10:05:23;;;;;;;19.42;17.60;;;14.30;99.90;;;;;;5018933;28;20075;-60
2022/10/27 10:07:49;;;;;;;18.60;16.83;;;14.40;99.90;;;;;;5016199;28;20769;-60
2022/10/27 10:10:28;;;;;;;18.98;17.08;;;14.40;99.90;;;;;;5018434;28;20034;-60
2022/10/27 10:13:05;;;;;;;17.52;15.73;;;14.40;99.90;;;;;;5021302;28;20476;-59
2022/10/27 10:15:36;;;;;;;18.80;17.05;;;14.50;99.90;;;;;;5017388;28;20379;-60
2022/10/27 10:18:03;;;;;;;;;;;14.80;99.90;;;;;;5014970;28;20088;-59
2022/10/27 10:20:31;;;;;;;16.50;14.85;;;15.30;99.90;;;;;;5020668;28;19912;-61
2022/10/27 10:23:20;;;;;;;16.27;14.88;;;15.80;99.90;;;;;;5021872;28;20513;-60
2022/10/27 10:25:48;;;;;;;15.77;14.35;;;16.10;99.90;;;;;;5018741;28;20018;-60
2022/10/27 10:28:37;;;;;;;14.80;13.48;;;16.20;99.90;;;;;;5019146;28;20025;-61
2022/10/27 10:31:09;;;;;;;13.88;12.70;;;16.30;99.90;;;;;;5015728;28;20079;-61
2022/10/27 10:33:38;;;;;;;13.45;12.35;;;16.50;99.90;;;;;;5019041;28;20033;-60
2022/10/27 10:36:35;;;;;;;13.68;12.18;;;16.70;99.90;;;;;;5016941;28;20136;-60
2022/10/27 10:39:01;;;;;;;13.45;12.38;;;16.80;99.90;;;;;;5020067;28;20085;-60
2022/10/27 10:41:28;;;;;;;12.80;11.57;;;16.90;99.90;;;;;;5021461;28;20056;-60
2022/10/27 10:44:11;;;;;;;12.35;11.18;;;16.90;99.90;;;;;;5014712;28;20068;-60
2022/10/27 10:46:54;;;;;;;12.38;11.38;;;16.90;99.90;;;;;;5019013;28;20029;-61
2022/10/27 10:49:26;;;;;;;11.98;10.98;;;17.00;99.90;;;;;;5017398;28;20034;-61
2022/10/27 10:51:55;;;;;;;12.13;11.18;;;17.10;99.90;;;;;;5015372;28;20557;-60
2022/10/27 10:54:30;;;;;;;11.98;10.98;;;17.20;99.90;;;;;;5014869;28;20030;-61
2022/10/27 10:56:55;;;;;;;13.23;10.85;;;17.10;99.90;;;;;;5013713;28;20022;-60
2022/10/27 10:59:33;;;;;;;12.75;11.75;;;17.20;99.90;;;;;;5016728;28;20541;-62
2022/10/27 11:02:13;;;;;;;12.10;10.90;;;17.40;99.90;;;;;;5018317;28;20032;-61
2022/10/27 11:04:46;;;;;;;9.93;8.93;;;17.50;99.90;;;;;;5014791;28;20029;-61
2022/10/27 11:07:29;;;;;;;11.02;9.80;;;17.50;99.90;;;;;;5017306;28;20033;-60
2022/10/27 11:09:58;;;;;;;9.50;8.70;;;17.60;99.90;;;;;;5016275;28;20156;-61
2022/10/27 11:12:32;;;;;;;10.30;9.35;;;17.50;99.90;;;;;;5019756;28;20116;-61
2022/10/27 11:15:06;;;;;;;11.23;10.30;;;17.40;99.90;;;;;;5020491;28;20057;-60
2022/10/27 11:17:34;;;;;;;11.02;10.10;;;17.30;99.90;;;;;;5016984;28;20030;-59
2022/10/27 11:20:03;;;;;;;11.55;10.40;;;17.30;99.90;;;;;;5014739;28;20498;-60
2022/10/27 11:22:30;;;;;;;10.98;9.98;;;17.20;99.90;;;;;;5016486;28;20033;-59
2022/10/27 11:25:13;;;;;;;10.30;9.40;;;17.20;99.90;;;;;;5018712;28;20113;-59
2022/10/27 11:28:03;;;;;;;10.27;9.05;;;17.20;99.90;;;;;;5014694;28;20061;-59
2022/10/27 11:30:29;;;;;;;9.60;8.35;;;17.20;99.90;;;;;;5016387;28;20022;-61
2022/10/27 11:33:07;;;;;;;9.57;8.77;;;17.20;99.90;;;;;;5015348;28;20033;-61
2022/10/27 11:35:54;;;;;;;10.15;9.02;;;17.20;99.90;;;;;;5016386;28;20013;-59
2022/10/27 11:38:26;;;;;;;9.80;8.75;;;17.40;99.90;;;;;;5015433;28;20401;-61
2022/10/27 11:41:04;;;;;;;9.00;8.07;;;17.50;99.90;;;;;;5019868;28;20552;-60
2022/10/27 11:43:38;;;;;;;8.45;7.65;;;17.70;99.90;;;;;;5022260;28;20509;-59
2022/10/27 11:46:10;;;;;;;7.60;6.90;;;17.80;99.90;;;;;;5017190;28;20022;-59
2022/10/27 11:48:51;;;;;;;7.88;7.28;;;17.90;99.90;;;;;;5012756;28;20033;-61
2022/10/27 11:51:43;;;;;;;8.02;7.28;;;18.00;99.90;;;;;;5014631;28;20042;-59
2022/10/27 11:54:09;;;;;;;9.00;8.20;;;18.00;99.90;;;;;;5018748;28;20048;-60
2022/10/27 11:56:47;;;;;;;11.77;7.78;;;18.10;99.90;;;;;;5017801;28;20455;-60
2022/10/27 11:59:19;;;;;;;8.63;7.80;;;18.20;99.90;;;;;;5019292;28;20042;-59
2022/10/27 12:02:04;;;;;;;8.98;7.78;;;18.20;99.90;;;;;;5016578;28;20564;-60
2022/10/27 12:04:39;;;;;;;8.57;7.68;;;18.30;99.90;;;;;;5010824;28;20510;-61
2022/10/27 12:07:31;;;;;;;9.02;8.23;;;18.40;99.90;;;;;;5018558;28;20133;-61
2022/10/27 12:10:06;;;;;;;7.50;6.80;;;18.40;99.90;;;;;;5014648;28;20038;-60
2022/10/27 12:12:43;;;;;;;8.35;7.65;;;18.50;99.90;;;;;;5017550;28;20036;-61
2022/10/27 12:15:40;;;;;;;10.20;6.75;;;18.50;99.90;;;;;;5014856;28;20673;-59
2022/10/27 12:18:11;;;;;;;8.25;6.35;;;18.60;99.90;;;;;;5022259;28;20103;-60
2022/10/27 12:20:54;;;;;;;8.20;6.75;;;18.70;99.90;;;;;;5019115;28;20022;-60
2022/10/27 12:23:32;;;;;;;8.70;6.53;;;18.80;99.90;;;;;;5020726;28;20034;-60
2022/10/27 12:26:23;;;;;;;7.93;7.13;;;18.70;99.90;;;;;;5016748;28;20045;-59
2022/10/27 12:28:49;;;;;;;;;;;18.60;99.90;;;;;;5019824;28;20040;-60
2022/10/27 12:31:24;;;;;;;7.13;6.47;;;18.70;99.90;;;;;;5019153;28;19913;-60
2022/10/27 12:34:02;;;;;;;12.25;6.60;;;18.70;99.90;;;;;;5020613;28;20036;-60
2022/10/27 12:36:54;;;;;;;7.82;6.47;;;18.80;99.90;;;;;;5024332;28;20552;-61
2022/10/27 12:39:31;;;;;;;9.18;6.57;;;18.70;99.90;;;;;;5016525;28;20397;-60
2022/10/27 12:42:08;;;;;;;8.70;6.28;;;18.80;99.90;;;;;;5019898;28;20680;-60
2022/10/27 12:44:52;;;;;;;7.32;6.10;;;18.80;99.90;;;;;;5019764;28;20092;-60
2022/10/27 12:47:23;;;;;;;8.35;6.55;;;18.80;99.90;;;;;;5024481;28;20970;-59
2022/10/27 12:49:54;;;;;;;7.40;6.80;;;18.90;99.90;;;;;;5019324;28;20068;-60
2022/10/27 12:52:22;;;;;;;8.38;7.57;;;19.00;99.90;;;;;;5020864;28;20026;-60
2022/10/27 12:55:18;;;;;;;7.75;6.40;;;18.90;99.90;;;;;;5018154;28;20053;-60